createdAt,value
2018-07-31T00:03:50.667Z,25.40
2018-07-31T00:07:54.020Z,25.30
2018-07-31T00:11:57.342Z,25.30
2018-07-31T00:16:01.849Z,25.20
2018-07-31T00:20:05.675Z,25.10
2018-07-31T00:24:09.030Z,25.00
2018-07-31T00:28:12.339Z,25.00
2018-07-31T00:32:15.667Z,24.90
2018-07-31T00:36:18.999Z,24.80
2018-07-31T00:40:22.314Z,24.70
2018-07-31T00:44:25.667Z,24.60
2018-07-31T00:48:29.560Z,24.60
2018-07-31T00:52:32.863Z,24.50
2018-07-31T00:56:36.183Z,24.40
2018-07-31T01:00:39.526Z,24.40
2018-07-31T01:04:42.879Z,24.30
2018-07-31T01:08:46.199Z,24.30
2018-07-31T01:12:49.503Z,24.20
2018-07-31T01:16:52.884Z,24.20
2018-07-31T01:20:56.236Z,24.10
2018-07-31T01:24:59.547Z,24.10
2018-07-31T01:29:02.914Z,24.00
2018-07-31T01:33:06.338Z,23.90
2018-07-31T01:37:09.664Z,23.90
2018-07-31T01:41:13.130Z,23.80
2018-07-31T01:45:16.463Z,23.70
2018-07-31T01:49:19.797Z,23.60
2018-07-31T01:53:23.167Z,23.50
2018-07-31T01:57:26.491Z,23.50
2018-07-31T02:01:29.811Z,23.40
2018-07-31T02:05:33.161Z,23.30
2018-07-31T02:09:37.782Z,23.30
2018-07-31T02:13:41.099Z,23.20
2018-07-31T02:17:44.435Z,23.20
2018-07-31T02:25:50.888Z,23.10
2018-07-31T02:29:59.539Z,23.00
2018-07-31T02:34:02.847Z,23.00
2018-07-31T02:38:06.192Z,22.90
2018-07-31T02:42:09.556Z,22.90
2018-07-31T02:46:12.867Z,22.80
2018-07-31T02:54:19.300Z,22.70
2018-07-31T02:58:22.647Z,22.70
2018-07-31T03:02:26.050Z,22.60
2018-07-31T03:06:29.401Z,22.60
2018-07-31T03:10:32.731Z,22.50
2018-07-31T03:14:36.102Z,22.40
2018-07-31T03:18:39.443Z,22.30
2018-07-31T03:22:42.815Z,22.20
2018-07-31T03:26:46.622Z,22.20
2018-07-31T03:30:49.961Z,22.10
2018-07-31T03:34:53.311Z,22.10
2018-07-31T03:38:56.640Z,22.00
2018-07-31T03:42:59.995Z,22.00
2018-07-31T03:47:03.347Z,22.00
2018-07-31T03:51:06.711Z,22.00
2018-07-31T03:55:10.036Z,22.00
2018-07-31T03:59:13.385Z,21.90
2018-07-31T04:03:16.707Z,21.90
2018-07-31T04:07:20.028Z,21.90
2018-07-31T04:11:23.407Z,21.80
2018-07-31T04:15:26.739Z,21.90
2018-07-31T04:19:30.087Z,21.80
2018-07-31T04:23:33.467Z,21.90
2018-07-31T04:27:36.797Z,21.80
2018-07-31T04:31:40.221Z,21.80
2018-07-31T04:35:44.718Z,21.80
2018-07-31T04:39:48.047Z,21.80
2018-07-31T04:43:51.408Z,21.70
2018-07-31T04:47:54.741Z,21.70
2018-07-31T04:51:58.075Z,21.70
2018-07-31T04:56:01.440Z,21.80
2018-07-31T05:00:07.916Z,21.80
2018-07-31T05:04:11.256Z,21.80
2018-07-31T05:08:14.602Z,21.90
2018-07-31T05:12:17.963Z,21.90
2018-07-31T05:16:21.268Z,22.00
2018-07-31T05:20:24.632Z,22.00
2018-07-31T05:24:27.967Z,22.10
2018-07-31T05:28:31.293Z,22.10
2018-07-31T05:32:34.712Z,22.20
2018-07-31T05:36:38.014Z,22.30
2018-07-31T05:40:41.327Z,22.40
2018-07-31T05:44:44.740Z,22.40
2018-07-31T05:48:48.672Z,22.50
2018-07-31T05:52:52.014Z,22.60
2018-07-31T05:56:55.367Z,22.70
2018-07-31T06:00:58.947Z,22.70
2018-07-31T06:05:02.363Z,22.80
2018-07-31T06:09:07.976Z,22.90
2018-07-31T06:13:11.407Z,23.00
2018-07-31T06:17:14.752Z,23.00
2018-07-31T06:21:18.099Z,23.10
2018-07-31T06:25:21.496Z,23.20
2018-07-31T06:29:24.847Z,23.30
2018-07-31T06:33:28.184Z,23.40
2018-07-31T06:37:31.587Z,23.50
2018-07-31T06:41:34.936Z,23.60
2018-07-31T06:45:38.288Z,23.70
2018-07-31T06:53:44.868Z,23.90
2018-07-31T06:57:54.711Z,24.00
2018-07-31T07:01:58.106Z,24.10
2018-07-31T07:06:01.471Z,24.20
2018-07-31T07:10:05.287Z,24.40
2018-07-31T07:14:08.703Z,24.50
2018-07-31T07:18:12.046Z,24.70
2018-07-31T07:22:15.387Z,24.80
2018-07-31T07:26:18.714Z,25.00
2018-07-31T07:30:22.047Z,25.10
2018-07-31T07:34:25.447Z,25.30
2018-07-31T07:38:28.787Z,25.40
2018-07-31T07:42:32.155Z,25.60
2018-07-31T07:46:35.508Z,25.80
2018-07-31T07:50:39.051Z,26.00
2018-07-31T07:54:42.959Z,26.20
2018-07-31T07:58:46.309Z,26.30
2018-07-31T08:02:49.620Z,26.60
2018-07-31T08:06:52.959Z,26.80
2018-07-31T08:10:56.294Z,27.00
2018-07-31T08:14:59.793Z,27.20
2018-07-31T08:19:03.186Z,27.40
2018-07-31T08:23:06.538Z,27.50
2018-07-31T08:27:09.911Z,27.70
2018-07-31T08:31:13.423Z,27.80
2018-07-31T08:35:17.342Z,27.90
2018-07-31T08:39:21.031Z,27.90
2018-07-31T08:43:24.991Z,27.90
2018-07-31T08:47:28.778Z,27.90
2018-07-31T08:51:32.116Z,27.90
2018-07-31T08:55:35.484Z,27.90
2018-07-31T08:59:38.833Z,27.80
2018-07-31T09:03:42.187Z,27.90
2018-07-31T09:07:45.506Z,28.00
2018-07-31T09:11:48.835Z,28.00
2018-07-31T09:15:52.176Z,28.20
2018-07-31T09:19:55.510Z,28.40
2018-07-31T09:23:58.874Z,28.70
2018-07-31T09:28:02.179Z,28.90
2018-07-31T09:32:05.501Z,29.00
2018-07-31T09:36:08.826Z,29.30
2018-07-31T09:40:12.197Z,29.50
2018-07-31T09:44:15.537Z,29.70
2018-07-31T09:48:18.881Z,30.00
2018-07-31T09:52:22.200Z,30.20
2018-07-31T09:56:25.555Z,30.50
2018-07-31T10:00:34.363Z,30.70
2018-07-31T10:04:38.012Z,31.00
2018-07-31T10:08:41.317Z,31.30
2018-07-31T10:12:44.651Z,31.60
2018-07-31T10:16:47.979Z,31.90
2018-07-31T10:20:51.337Z,32.00
2018-07-31T10:24:54.667Z,32.10
2018-07-31T10:28:57.980Z,32.20
2018-07-31T10:33:01.373Z,32.20
2018-07-31T10:37:04.732Z,32.40
2018-07-31T10:41:08.084Z,32.50
2018-07-31T10:45:11.435Z,32.70
2018-07-31T10:49:14.808Z,32.90
2018-07-31T10:53:18.199Z,33.10
2018-07-31T10:57:21.526Z,33.40
2018-07-31T11:01:24.918Z,33.60
2018-07-31T11:09:31.253Z,36.10
2018-07-31T11:13:34.583Z,34.40
2018-07-31T11:17:37.927Z,34.50
2018-07-31T11:21:41.360Z,34.80
2018-07-31T11:25:44.686Z,34.90
2018-07-31T11:29:48.007Z,35.00
2018-07-31T11:33:51.346Z,35.20
2018-07-31T11:37:54.671Z,35.20
2018-07-31T11:41:58.030Z,35.30
2018-07-31T11:46:01.369Z,35.40
2018-07-31T11:50:05.386Z,35.50
2018-07-31T11:54:08.606Z,35.60
2018-07-31T11:58:12.139Z,35.60
2018-07-31T12:02:15.503Z,35.70
2018-07-31T12:06:18.866Z,35.90
2018-07-31T12:10:22.202Z,36.00
2018-07-31T12:14:25.519Z,36.10
2018-07-31T12:18:28.854Z,36.30
2018-07-31T12:22:32.236Z,36.30
2018-07-31T12:26:35.603Z,36.40
2018-07-31T12:30:38.926Z,36.50
2018-07-31T12:34:42.278Z,36.30
2018-07-31T12:38:45.611Z,36.40
2018-07-31T12:42:48.936Z,36.30
2018-07-31T12:46:52.267Z,36.40
2018-07-31T12:50:55.581Z,36.40
2018-07-31T12:54:58.915Z,36.50
2018-07-31T12:59:02.280Z,36.60
2018-07-31T13:03:05.847Z,36.60
2018-07-31T13:07:09.286Z,36.70
2018-07-31T13:11:14.071Z,36.70
2018-07-31T13:15:17.410Z,36.60
2018-07-31T13:19:20.732Z,36.50
2018-07-31T13:23:24.083Z,36.60
2018-07-31T13:27:27.411Z,36.60
2018-07-31T13:31:30.835Z,36.60
2018-07-31T13:35:34.174Z,36.60
2018-07-31T13:39:37.554Z,36.60
2018-07-31T13:43:40.935Z,36.60
2018-07-31T13:47:44.244Z,36.50
2018-07-31T13:51:47.592Z,36.60
2018-07-31T13:55:50.919Z,36.60
2018-07-31T13:59:54.268Z,36.70
2018-07-31T14:03:57.633Z,36.70
2018-07-31T14:08:00.959Z,36.70
2018-07-31T14:12:04.331Z,36.90
2018-07-31T14:16:07.653Z,36.70
2018-07-31T14:20:11.017Z,36.70
2018-07-31T14:24:14.356Z,36.80
2018-07-31T14:28:17.945Z,36.70
2018-07-31T14:32:21.299Z,36.70
2018-07-31T14:36:24.623Z,36.70
2018-07-31T14:40:27.983Z,36.80
2018-07-31T14:44:31.321Z,36.80
2018-07-31T14:48:34.756Z,36.70
2018-07-31T14:56:42.707Z,36.50
2018-07-31T15:00:47.772Z,36.50
2018-07-31T15:04:52.811Z,36.50
2018-07-31T15:08:56.155Z,36.40
2018-07-31T15:12:59.492Z,36.40
2018-07-31T15:17:02.851Z,36.40
2018-07-31T15:21:06.282Z,36.40
2018-07-31T15:25:09.661Z,36.50
2018-07-31T15:29:12.999Z,36.50
2018-07-31T15:33:16.324Z,36.40
2018-07-31T15:37:19.636Z,36.50
2018-07-31T15:41:23.082Z,36.60
2018-07-31T15:45:26.408Z,36.70
2018-07-31T15:49:29.751Z,36.80
2018-07-31T15:53:33.227Z,37.00
2018-07-31T15:57:36.544Z,37.00
2018-07-31T16:05:43.008Z,37.40
2018-07-31T16:09:46.324Z,37.50
2018-07-31T16:13:49.675Z,37.70
2018-07-31T16:17:53.014Z,38.00
2018-07-31T16:21:56.365Z,38.10
2018-07-31T16:25:59.769Z,38.10
2018-07-31T16:30:03.104Z,37.90
2018-07-31T16:34:06.575Z,37.70
2018-07-31T16:38:09.871Z,37.50
2018-07-31T16:42:13.222Z,37.30
2018-07-31T16:46:16.754Z,37.10
2018-07-31T16:50:21.079Z,36.90
2018-07-31T16:58:27.531Z,36.60
2018-07-31T17:02:30.856Z,36.40
2018-07-31T17:06:34.195Z,36.20
2018-07-31T17:10:37.542Z,36.00
2018-07-31T17:14:40.870Z,35.70
2018-07-31T17:18:44.190Z,35.50
2018-07-31T17:22:47.531Z,35.20
2018-07-31T17:26:51.316Z,34.90
2018-07-31T17:30:54.743Z,34.70
2018-07-31T17:34:58.096Z,34.30
2018-07-31T17:39:01.424Z,34.20
2018-07-31T17:43:04.782Z,33.90
2018-07-31T17:47:08.102Z,33.70
2018-07-31T17:51:11.539Z,33.50
2018-07-31T17:55:14.871Z,33.20
2018-07-31T17:59:18.243Z,33.00
2018-07-31T18:03:21.587Z,32.80
2018-07-31T18:07:24.973Z,32.60
2018-07-31T18:11:28.371Z,32.40
2018-07-31T18:15:31.838Z,32.20
2018-07-31T18:19:35.175Z,32.10
2018-07-31T18:23:38.639Z,31.90
2018-07-31T18:27:41.875Z,31.70
2018-07-31T18:31:45.219Z,31.60
2018-07-31T18:35:48.541Z,31.40
2018-07-31T18:39:51.888Z,31.20
2018-07-31T18:43:55.242Z,31.10
2018-07-31T18:47:58.594Z,30.90
2018-07-31T18:52:01.924Z,30.80
2018-07-31T18:56:05.358Z,30.60
2018-07-31T19:00:08.766Z,30.40
2018-07-31T19:04:12.083Z,30.30
2018-07-31T19:08:15.587Z,30.10
2018-07-31T19:12:19.188Z,30.00
2018-07-31T19:16:22.758Z,29.80
2018-07-31T19:20:26.445Z,29.70
2018-07-31T19:24:31.472Z,29.60
2018-07-31T19:28:34.889Z,29.50
2018-07-31T19:32:38.215Z,29.30
2018-07-31T19:36:41.573Z,29.20
2018-07-31T19:40:44.890Z,29.10
2018-07-31T19:44:48.270Z,29.00
2018-07-31T19:48:51.611Z,28.90
2018-07-31T19:52:54.946Z,28.80
2018-07-31T19:56:58.285Z,28.70
2018-07-31T20:01:01.647Z,28.60
2018-07-31T20:05:05.196Z,28.60
2018-07-31T20:09:09.419Z,28.50
2018-07-31T20:13:12.756Z,28.40
2018-07-31T20:17:16.107Z,28.30
2018-07-31T20:21:19.633Z,28.20
2018-07-31T20:25:22.920Z,28.20
2018-07-31T20:29:26.256Z,28.10
2018-07-31T20:33:30.082Z,28.10
2018-07-31T20:37:33.804Z,28.00
2018-07-31T20:41:37.428Z,27.90
2018-07-31T20:45:40.745Z,27.80
2018-07-31T20:49:44.097Z,27.70
2018-07-31T20:53:47.424Z,27.70
2018-07-31T20:57:50.762Z,27.60
2018-07-31T21:01:54.273Z,27.50
2018-07-31T21:05:57.600Z,27.50
2018-07-31T21:10:01.000Z,27.40
2018-07-31T21:14:04.368Z,27.40
2018-07-31T21:18:07.712Z,27.30
2018-07-31T21:22:11.183Z,27.20
2018-07-31T21:26:14.511Z,27.10
2018-07-31T21:30:17.862Z,27.00
2018-07-31T21:34:21.231Z,26.90
2018-07-31T21:38:24.688Z,26.90
2018-07-31T21:42:28.051Z,26.80
2018-07-31T21:46:31.362Z,26.70
2018-07-31T21:50:34.719Z,26.70
2018-07-31T21:54:38.417Z,26.60
2018-07-31T21:58:41.763Z,26.50
2018-07-31T22:02:45.816Z,26.40
2018-07-31T22:06:55.947Z,26.40
2018-07-31T22:10:59.276Z,26.30
2018-07-31T22:15:02.928Z,26.20
2018-07-31T22:19:08.048Z,26.20
2018-07-31T22:23:11.795Z,26.20
2018-07-31T22:27:15.505Z,26.10
2018-07-31T22:31:19.154Z,26.10
2018-07-31T22:35:22.497Z,26.10
2018-07-31T22:39:25.832Z,26.00
2018-07-31T22:43:29.228Z,26.00
2018-07-31T22:47:32.521Z,26.00
2018-07-31T22:51:35.828Z,25.90
2018-07-31T22:55:39.582Z,25.90
2018-07-31T22:59:42.909Z,25.80
2018-07-31T23:03:46.310Z,25.80
2018-07-31T23:07:50.983Z,25.70
2018-07-31T23:11:54.303Z,25.70
2018-07-31T23:15:58.921Z,25.60
2018-07-31T23:20:04.403Z,25.50
2018-07-31T23:28:10.803Z,25.30
2018-07-31T23:32:14.159Z,25.20
2018-07-31T23:36:17.490Z,25.10
2018-07-31T23:40:20.815Z,24.90
2018-07-31T23:44:24.163Z,24.80
2018-07-31T23:48:27.475Z,24.70
2018-07-31T23:52:30.904Z,24.60
2018-07-31T23:56:34.219Z,24.50
